Time;durP1;ratioP1;P1;durP2;ratioP2;P2;SDS_P1;SDS_P2;PMS_P1;PMS_P2;Temp;Humidity;BMP_temperature;BMP_pressure;BME280_temperature;BME280_humidity;BME280_pressure;Samples;Min_cycle;Max_cycle;Signal;HPM_P1;HPM_P2
2021/09/27 00:01:05;;;;;;;0.30;0.25;;;26.10;55.80;;;;;;5066189;28;20048;-47
2021/09/27 00:03:34;;;;;;;0.17;0.17;;;26.10;55.80;;;;;;5054786;28;20081;-49
2021/09/27 00:06:01;;;;;;;0.22;0.17;;;26.10;55.80;;;;;;5063767;28;20048;-50
2021/09/27 00:08:29;;;;;;;0.30;0.30;;;26.10;55.80;;;;;;5058709;28;20037;-49
2021/09/27 00:10:59;;;;;;;0.82;0.10;;;26.10;55.80;;;;;;5055580;28;20045;-49
2021/09/27 00:13:29;;;;;;;1.48;0.30;;;26.10;55.80;;;;;;5051175;28;20041;-48
2021/09/27 00:15:57;;;;;;;1.33;0.40;;;26.00;55.70;;;;;;5052518;28;20060;-51
2021/09/27 00:18:25;;;;;;;0.90;0.25;;;26.10;55.80;;;;;;5054290;28;20544;-49
2021/09/27 00:20:58;;;;;;;1.75;0.30;;;26.10;55.80;;;;;;5052655;28;20044;-50
2021/09/27 00:23:27;;;;;;;0.73;0.10;;;26.10;55.80;;;;;;5052924;28;20385;-50
2021/09/27 00:25:54;;;;;;;0.20;0.10;;;26.10;55.80;;;;;;5052956;28;20037;-49
2021/09/27 00:28:22;;;;;;;0.55;0.10;;;26.00;55.70;;;;;;5059142;28;20040;-49
2021/09/27 00:30:50;;;;;;;1.55;0.40;;;26.00;55.70;;;;;;5052108;28;20052;-53
2021/09/27 00:33:18;;;;;;;1.55;0.13;;;26.00;55.70;;;;;;5052507;28;20045;-51
2021/09/27 00:35:46;;;;;;;0.82;0.10;;;26.00;55.70;;;;;;5052652;28;20041;-50
2021/09/27 00:38:14;;;;;;;0.10;0.10;;;26.00;55.70;;;;;;5052386;28;20041;-48
2021/09/27 00:40:45;;;;;;;0.82;0.10;;;26.00;55.70;;;;;;5055382;28;20033;-49
2021/09/27 00:43:13;;;;;;;0.93;0.30;;;26.00;55.80;;;;;;5047621;28;20049;-48
2021/09/27 00:45:46;;;;;;;0.10;0.10;;;26.00;55.70;;;;;;5053406;28;20050;-47
2021/09/27 00:48:13;;;;;;;1.55;0.10;;;26.00;55.70;;;;;;5052245;28;20071;-48
2021/09/27 00:50:45;;;;;;;0.28;0.20;;;26.00;55.70;;;;;;5052408;28;20041;-47
2021/09/27 00:53:19;;;;;;;0.25;0.10;;;26.00;55.70;;;;;;5058844;28;20036;-51
2021/09/27 00:55:47;;;;;;;0.52;0.10;;;26.10;55.80;;;;;;5063582;28;20045;-47
2021/09/27 00:58:17;;;;;;;0.30;0.30;;;26.00;55.70;;;;;;5050718;28;20041;-49
2021/09/27 01:00:44;;;;;;;0.10;0.10;;;26.00;55.70;;;;;;5049972;28;20517;-51
2021/09/27 01:03:12;;;;;;;0.15;0.10;;;26.00;55.70;;;;;;5064693;28;20044;-48
2021/09/27 01:05:43;;;;;;;0.30;0.10;;;26.00;55.70;;;;;;5062026;28;20039;-53
2021/09/27 01:08:32;;;;;;;0.55;0.10;;;26.00;55.70;;;;;;5062311;28;20037;-51
2021/09/27 01:11:14;;;;;;;0.45;0.10;;;26.00;55.70;;;;;;5055603;28;20120;-50
2021/09/27 01:14:09;;;;;;;0.20;0.20;;;26.00;55.70;;;;;;5065196;28;20421;-49
2021/09/27 01:16:45;;;;;;;0.85;0.10;;;26.00;55.70;;;;;;5062095;28;20124;-51
2021/09/27 01:19:44;;;;;;;0.95;0.20;;;26.00;55.80;;;;;;5047876;28;20457;-52
2021/09/27 01:22:20;;;;;;;1.05;0.10;;;26.00;55.80;;;;;;5050787;28;20045;-50
2021/09/27 01:25:23;;;;;;;0.30;0.10;;;26.00;55.80;;;;;;5064093;28;20044;-49
2021/09/27 01:28:20;;;;;;;0.10;0.10;;;26.00;55.70;;;;;;5064495;28;20052;-53
2021/09/27 01:31:11;;;;;;;0.57;0.10;;;25.90;55.70;;;;;;5064072;28;20131;-50
2021/09/27 01:33:46;;;;;;;0.60;0.50;;;25.90;55.80;;;;;;5061872;28;20147;-48
2021/09/27 01:36:21;;;;;;;0.65;0.10;;;25.90;55.80;;;;;;5064450;28;20153;-54
2021/09/27 01:38:57;;;;;;;0.20;0.20;;;25.90;55.80;;;;;;5054378;28;20048;-50
2021/09/27 01:41:33;;;;;;;0.32;0.10;;;25.90;55.80;;;;;;5052036;28;20479;-52
2021/09/27 01:44:26;;;;;;;0.20;0.17;;;25.90;55.80;;;;;;5051675;28;20044;-48
2021/09/27 01:46:57;;;;;;;0.47;0.43;;;25.90;55.80;;;;;;5060258;28;20042;-50
2021/09/27 01:49:34;;;;;;;0.10;0.10;;;25.90;55.80;;;;;;5062922;28;20037;-49
2021/09/27 01:52:07;;;;;;;0.55;0.10;;;25.90;55.70;;;;;;5050544;28;20063;-48
2021/09/27 01:54:38;;;;;;;0.20;0.10;;;25.90;55.70;;;;;;5048552;28;20064;-49
2021/09/27 01:57:15;;;;;;;0.95;0.10;;;25.90;55.80;;;;;;5051459;28;20422;-49
2021/09/27 01:59:51;;;;;;;0.35;0.10;;;25.90;55.70;;;;;;5051765;28;20048;-47
2021/09/27 02:02:26;;;;;;;0.10;0.10;;;25.90;55.70;;;;;;5052476;28;20128;-47
2021/09/27 02:05:04;;;;;;;1.23;0.20;;;25.90;55.70;;;;;;5051737;28;20583;-48
2021/09/27 02:07:38;;;;;;;0.20;0.10;;;25.90;55.70;;;;;;5062596;28;20056;-47
2021/09/27 02:10:11;;;;;;;2.00;0.20;;;25.90;55.70;;;;;;5046926;28;20048;-48
2021/09/27 02:12:44;;;;;;;0.20;0.13;;;25.90;55.70;;;;;;5047965;28;20045;-49
2021/09/27 02:15:17;;;;;;;0.45;0.20;;;25.90;55.70;;;;;;5061540;28;20046;-48
2021/09/27 02:17:51;;;;;;;1.00;0.30;;;25.90;55.70;;;;;;5053143;28;20037;-47
2021/09/27 02:20:27;;;;;;;1.05;0.40;;;25.90;55.70;;;;;;5050656;28;20045;-50
2021/09/27 02:23:03;;;;;;;0.60;0.10;;;25.90;55.70;;;;;;5050046;28;20053;-48
2021/09/27 02:25:34;;;;;;;1.00;0.10;;;25.90;55.70;;;;;;5048428;28;20045;-48
2021/09/27 02:28:05;;;;;;;1.15;0.17;;;25.90;55.70;;;;;;5050528;28;20091;-48
2021/09/27 02:30:46;;;;;;;0.35;0.20;;;25.80;55.60;;;;;;5048538;28;20066;-48
2021/09/27 02:33:19;;;;;;;0.20;0.10;;;25.90;55.60;;;;;;5052172;28;20049;-47
2021/09/27 02:35:53;;;;;;;0.40;0.10;;;25.80;55.60;;;;;;5053143;28;20040;-49
2021/09/27 02:38:25;;;;;;;0.20;0.20;;;25.90;55.70;;;;;;5050017;28;20045;-52
2021/09/27 02:40:57;;;;;;;2.20;0.20;;;25.80;55.60;;;;;;5050583;28;20412;-47
2021/09/27 02:43:25;;;;;;;0.30;0.10;;;25.80;55.60;;;;;;5048413;28;20129;-49
2021/09/27 02:45:53;;;;;;;1.55;0.30;;;25.80;55.60;;;;;;5049690;28;20523;-48
2021/09/27 02:48:32;;;;;;;1.33;0.10;;;25.90;55.70;;;;;;5051870;28;20057;-48
2021/09/27 02:51:01;;;;;;;0.90;0.10;;;25.80;55.60;;;;;;5050879;28;20067;-48
2021/09/27 02:53:28;;;;;;;1.27;0.32;;;25.80;55.60;;;;;;5056689;28;20513;-48
2021/09/27 02:56:16;;;;;;;0.20;0.10;;;25.80;55.60;;;;;;5061464;28;20052;-48
2021/09/27 02:58:48;;;;;;;0.40;0.17;;;25.80;55.60;;;;;;5049096;28;20051;-48
2021/09/27 03:01:24;;;;;;;0.50;0.28;;;25.80;55.60;;;;;;5050768;28;20154;-49
2021/09/27 03:04:02;;;;;;;2.72;0.13;;;25.90;55.60;;;;;;5061895;28;20660;-50
2021/09/27 03:06:42;;;;;;;2.80;0.10;;;25.80;55.60;;;;;;5057100;28;20044;-48
2021/09/27 03:09:23;;;;;;;0.65;0.20;;;25.80;55.60;;;;;;5055445;28;20049;-48
2021/09/27 03:12:10;;;;;;;0.20;0.20;;;25.80;55.60;;;;;;5055229;28;20041;-48
2021/09/27 03:14:59;;;;;;;0.40;0.10;;;25.80;55.60;;;;;;5060039;28;20551;-49
2021/09/27 03:17:34;;;;;;;0.20;0.10;;;25.80;55.60;;;;;;5050372;28;20458;-51
2021/09/27 03:20:23;;;;;;;0.68;0.60;;;25.80;55.60;;;;;;5054742;28;20045;-50
2021/09/27 03:23:01;;;;;;;1.27;0.20;;;25.80;55.60;;;;;;5053405;28;20091;-48
2021/09/27 03:25:39;;;;;;;1.75;0.20;;;25.80;55.60;;;;;;5052749;28;20037;-48
2021/09/27 03:28:14;;;;;;;0.20;0.20;;;25.80;55.60;;;;;;5057401;28;20116;-49
2021/09/27 03:30:51;;;;;;;0.10;0.10;;;25.80;55.60;;;;;;5067176;28;20037;-49
2021/09/27 03:33:26;;;;;;;2.55;0.10;;;25.80;55.60;;;;;;5055185;28;20128;-50
2021/09/27 03:36:13;;;;;;;0.10;0.10;;;25.80;55.60;;;;;;5053827;28;20147;-49
2021/09/27 03:38:49;;;;;;;0.98;0.10;;;25.80;55.60;;;;;;5056875;28;20033;-47
2021/09/27 03:41:23;;;;;;;0.20;0.10;;;25.80;55.60;;;;;;5060164;28;20406;-48
2021/09/27 03:44:02;;;;;;;0.38;0.10;;;25.80;55.60;;;;;;5054536;28;20049;-52
2021/09/27 03:46:36;;;;;;;0.60;0.20;;;25.80;55.60;;;;;;5066636;28;20122;-48
2021/09/27 03:49:09;;;;;;;0.63;0.20;;;25.70;55.50;;;;;;5050848;28;20048;-48
2021/09/27 03:51:41;;;;;;;1.75;0.10;;;25.80;55.60;;;;;;5052627;28;20052;-48
2021/09/27 03:54:15;;;;;;;0.40;0.30;;;25.80;55.60;;;;;;5054246;28;20037;-52
2021/09/27 03:56:47;;;;;;;0.50;0.17;;;25.80;55.50;;;;;;5053887;28;20045;-52
2021/09/27 03:59:20;;;;;;;1.23;0.20;;;25.80;55.50;;;;;;5053524;28;20083;-50
2021/09/27 04:01:55;;;;;;;1.65;0.20;;;25.80;55.60;;;;;;5054249;28;20528;-50
2021/09/27 04:04:50;;;;;;;1.00;0.43;;;25.80;55.60;;;;;;5053474;28;20037;-49
2021/09/27 04:07:29;;;;;;;0.30;0.13;;;25.80;55.50;;;;;;5048174;28;20053;-49
2021/09/27 04:10:09;;;;;;;0.68;0.40;;;25.80;55.50;;;;;;5051359;28;20059;-48
2021/09/27 04:12:57;;;;;;;0.52;0.10;;;25.80;55.50;;;;;;5054840;28;20033;-49
2021/09/27 04:15:39;;;;;;;0.20;0.20;;;25.70;56.00;;;;;;5061875;28;20067;-48
2021/09/27 04:18:15;;;;;;;1.75;0.65;;;25.80;55.60;;;;;;5062582;28;20040;-49
2021/09/27 04:20:56;;;;;;;0.20;0.10;;;25.80;55.50;;;;;;5063898;28;20040;-48
2021/09/27 04:23:31;;;;;;;0.65;0.10;;;25.80;55.50;;;;;;5058472;28;20041;-51
2021/09/27 04:26:07;;;;;;;0.30;0.30;;;25.70;55.40;;;;;;5052462;28;20044;-52
2021/09/27 04:28:51;;;;;;;;;;;25.70;55.50;;;;;;5053219;28;20047;-50
2021/09/27 04:31:27;;;;;;;1.67;0.20;;;25.70;55.40;;;;;;5005068;28;20313;-48
2021/09/27 04:34:30;;;;;;;0.50;0.10;;;25.70;55.60;;;;;;4987508;28;20050;-47
2021/09/27 04:36:58;;;;;;;0.15;0.13;;;25.70;55.50;;;;;;5003545;28;20151;-48
2021/09/27 04:39:30;;;;;;;0.68;0.17;;;25.70;55.60;;;;;;4989434;28;20446;-48
2021/09/27 04:42:29;;;;;;;2.42;0.55;;;25.70;55.50;;;;;;4990494;28;20133;-51
2021/09/27 04:45:09;;;;;;;1.35;0.10;;;25.70;55.40;;;;;;4992015;28;20082;-48
2021/09/27 04:47:48;;;;;;;0.73;0.10;;;25.70;55.50;;;;;;4995153;28;20660;-49
2021/09/27 04:50:30;;;;;;;0.70;0.10;;;25.70;55.40;;;;;;5001218;28;20045;-47
2021/09/27 04:53:16;;;;;;;0.20;0.10;;;25.70;55.40;;;;;;4999739;28;20052;-47
2021/09/27 04:55:55;;;;;;;1.17;0.10;;;25.70;56.10;;;;;;4991689;28;20153;-48
2021/09/27 04:58:46;;;;;;;1.95;0.28;;;25.70;55.40;;;;;;4993432;28;20100;-49
2021/09/27 05:01:30;;;;;;;0.45;0.10;;;25.70;55.40;;;;;;4988470;28;20593;-50
2021/09/27 05:04:11;;;;;;;0.40;0.20;;;25.70;55.30;;;;;;4987027;28;20042;-50
2021/09/27 05:07:15;;;;;;;0.50;0.10;;;25.70;55.30;;;;;;4986992;28;20058;-49
2021/09/27 05:09:55;;;;;;;0.70;0.15;;;25.70;55.20;;;;;;5073046;28;20040;-48
2021/09/27 05:12:48;;;;;;;2.58;0.85;;;25.70;55.30;;;;;;5053726;28;20036;-47
2021/09/27 05:15:58;;;;;;;0.10;0.10;;;25.70;55.20;;;;;;5053315;28;20044;-48
2021/09/27 05:18:48;;;;;;;2.17;0.10;;;25.70;55.20;;;;;;5053681;28;20137;-47
2021/09/27 05:21:34;;;;;;;3.05;0.10;;;25.70;55.30;;;;;;5052767;28;20055;-48
2021/09/27 05:24:28;;;;;;;0.22;0.05;;;25.70;55.30;;;;;;5051282;28;20045;-49
2021/09/27 05:27:12;;;;;;;1.75;0.10;;;25.70;55.20;;;;;;5054725;28;20068;-50
2021/09/27 05:29:53;;;;;;;0.52;0.22;;;25.70;55.20;;;;;;5050882;28;20049;-51
2021/09/27 05:32:38;;;;;;;0.28;0.10;;;25.70;55.20;;;;;;5052157;28;20041;-51
2021/09/27 05:35:21;;;;;;;1.50;0.15;;;25.70;55.20;;;;;;5052390;28;20049;-51
2021/09/27 05:37:58;;;;;;;0.43;0.10;;;25.70;55.20;;;;;;5062120;28;20055;-49
2021/09/27 05:40:38;;;;;;;2.20;0.17;;;25.70;55.20;;;;;;5052346;28;20037;-50
2021/09/27 05:43:28;;;;;;;0.90;0.10;;;25.70;55.20;;;;;;5047413;28;20414;-53
2021/09/27 05:46:10;;;;;;;0.20;0.20;;;25.70;55.20;;;;;;5063288;28;20040;-48
2021/09/27 05:48:45;;;;;;;0.38;0.10;;;25.70;55.20;;;;;;5048030;28;20076;-48
2021/09/27 05:51:17;;;;;;;1.90;0.13;;;25.60;55.10;;;;;;5062267;28;20064;-49
2021/09/27 05:53:55;;;;;;;0.40;0.10;;;25.70;55.20;;;;;;5054300;28;20483;-49
2021/09/27 05:56:30;;;;;;;0.75;0.13;;;25.70;55.10;;;;;;5053172;28;20041;-48
2021/09/27 05:59:04;;;;;;;1.58;0.30;;;25.70;55.10;;;;;;5050740;28;20033;-47
2021/09/27 06:01:43;;;;;;;0.20;0.10;;;25.70;55.10;;;;;;5059035;28;20040;-48
2021/09/27 06:04:25;;;;;;;1.88;0.35;;;25.70;55.10;;;;;;5046713;28;20039;-48
2021/09/27 06:07:02;;;;;;;0.20;0.20;;;25.70;55.10;;;;;;5070186;28;20036;-52
2021/09/27 06:09:58;;;;;;;0.45;0.10;;;25.70;55.10;;;;;;5052148;28;20048;-49
2021/09/27 06:12:33;;;;;;;0.52;0.10;;;25.70;55.10;;;;;;5053977;28;20069;-48
2021/09/27 06:15:05;;;;;;;0.47;0.10;;;25.60;55.00;;;;;;5050183;28;20037;-48
2021/09/27 06:17:57;;;;;;;0.30;0.20;;;25.70;55.10;;;;;;5056359;28;20567;-49
2021/09/27 06:20:34;;;;;;;0.70;0.10;;;25.70;55.10;;;;;;5050771;28;20045;-48
2021/09/27 06:23:24;;;;;;;0.63;0.10;;;25.60;55.00;;;;;;5050372;28;20051;-50
2021/09/27 06:25:57;;;;;;;2.47;0.13;;;25.60;55.00;;;;;;5053898;28;20131;-49
2021/09/27 06:28:41;;;;;;;1.10;0.10;;;25.60;55.00;;;;;;5048660;28;20037;-48
2021/09/27 06:31:15;;;;;;;1.98;0.10;;;25.60;55.00;;;;;;5056286;28;26314;-49
2021/09/27 06:33:51;;;;;;;0.40;0.40;;;25.70;55.10;;;;;;5062927;28;20504;-50
2021/09/27 06:36:22;;;;;;;0.30;0.10;;;25.70;55.00;;;;;;5061840;28;20041;-49
2021/09/27 06:38:53;;;;;;;0.75;0.10;;;25.70;55.00;;;;;;5059974;28;20047;-52
2021/09/27 06:41:22;;;;;;;0.60;0.10;;;25.70;55.00;;;;;;5056375;28;20045;-51
2021/09/27 06:43:51;;;;;;;1.20;0.10;;;25.60;55.00;;;;;;5051472;28;20408;-50
2021/09/27 06:46:18;;;;;;;0.45;0.45;;;25.70;55.00;;;;;;5064114;28;20033;-49
2021/09/27 06:48:45;;;;;;;0.63;0.10;;;25.70;55.00;;;;;;5052142;28;20516;-53
2021/09/27 06:51:12;;;;;;;1.08;0.10;;;25.70;54.90;;;;;;5051655;28;20036;-48
2021/09/27 06:53:40;;;;;;;1.98;0.10;;;25.70;54.90;;;;;;5050723;28;20568;-52
2021/09/27 06:56:07;;;;;;;0.35;0.10;;;25.70;54.90;;;;;;5049866;28;20037;-50
2021/09/27 06:58:34;;;;;;;1.23;0.10;;;25.70;54.80;;;;;;5049526;28;20567;-50
2021/09/27 07:01:01;;;;;;;0.82;0.17;;;25.70;54.80;;;;;;5048536;28;20068;-48
2021/09/27 07:03:28;;;;;;;0.38;0.10;;;25.70;54.80;;;;;;5055002;28;20037;-47
2021/09/27 07:05:56;;;;;;;0.28;0.28;;;25.70;54.80;;;;;;5059116;28;20421;-50
2021/09/27 07:08:23;;;;;;;2.22;0.68;;;25.70;54.80;;;;;;5056752;28;20413;-48
2021/09/27 07:10:53;;;;;;;1.05;0.10;;;25.70;54.80;;;;;;5051332;28;20118;-49
2021/09/27 07:13:22;;;;;;;0.88;0.20;;;25.70;54.80;;;;;;5047552;28;20033;-52
2021/09/27 07:15:49;;;;;;;2.25;0.20;;;25.70;54.90;;;;;;5049205;28;20045;-49
2021/09/27 07:18:16;;;;;;;7.28;0.50;;;25.70;55.00;;;;;;5049173;28;20056;-50
2021/09/27 07:20:44;;;;;;;4.25;0.10;;;25.70;55.00;;;;;;5050290;28;20445;-48
2021/09/27 07:23:11;;;;;;;1.92;0.32;;;25.70;55.00;;;;;;5049259;28;20076;-47
2021/09/27 07:25:38;;;;;;;4.60;0.65;;;25.70;55.10;;;;;;5049447;28;20040;-47
2021/09/27 07:28:07;;;;;;;2.95;0.20;;;25.70;55.00;;;;;;5049480;28;20037;-52
2021/09/27 07:30:36;;;;;;;0.57;0.10;;;25.70;55.00;;;;;;5047211;28;20041;-49
2021/09/27 07:33:03;;;;;;;1.52;0.43;;;25.70;55.00;;;;;;5051136;28;20049;-51
2021/09/27 07:35:32;;;;;;;2.92;0.20;;;25.70;55.00;;;;;;5052393;28;20607;-51
2021/09/27 07:37:59;;;;;;;2.65;0.20;;;25.70;55.10;;;;;;5068681;28;20068;-48
2021/09/27 07:40:29;;;;;;;2.10;0.20;;;25.70;55.00;;;;;;5065370;28;20044;-50
2021/09/27 07:42:56;;;;;;;0.85;0.65;;;25.70;55.10;;;;;;5064122;28;20144;-49
2021/09/27 07:45:26;;;;;;;1.38;0.20;;;25.70;55.70;;;;;;5055398;28;20037;-49
2021/09/27 07:47:54;;;;;;;1.50;0.10;;;25.70;55.10;;;;;;5054827;28;20033;-47
2021/09/27 07:50:22;;;;;;;0.30;0.20;;;25.70;55.10;;;;;;5055435;28;20041;-47
2021/09/27 07:52:49;;;;;;;1.40;0.40;;;25.70;55.10;;;;;;5062097;28;20517;-49
2021/09/27 07:55:16;;;;;;;3.20;0.47;;;25.70;55.10;;;;;;5050582;28;20041;-47
2021/09/27 07:57:43;;;;;;;4.07;0.30;;;25.70;55.10;;;;;;5053834;28;20500;-51
2021/09/27 08:00:14;;;;;;;1.05;0.57;;;25.70;55.10;;;;;;5049906;28;20513;-52
2021/09/27 08:02:43;;;;;;;0.88;0.10;;;25.70;55.10;;;;;;5053907;28;20134;-48
2021/09/27 08:05:12;;;;;;;0.30;0.10;;;25.70;55.10;;;;;;5050929;28;20051;-50
2021/09/27 08:07:39;;;;;;;1.85;0.20;;;25.70;55.10;;;;;;5053106;28;20063;-49
2021/09/27 08:10:09;;;;;;;0.52;0.22;;;25.70;55.10;;;;;;5053125;28;20036;-51
2021/09/27 08:12:37;;;;;;;0.73;0.73;;;25.70;55.10;;;;;;5050415;28;20527;-53
2021/09/27 08:15:06;;;;;;;0.50;0.10;;;25.70;55.10;;;;;;5052269;28;20064;-50
2021/09/27 08:17:33;;;;;;;1.08;0.10;;;25.70;55.10;;;;;;5054447;28;20051;-53
2021/09/27 08:20:03;;;;;;;0.40;0.10;;;25.70;55.20;;;;;;5054063;28;20041;-51
2021/09/27 08:22:30;;;;;;;2.08;0.10;;;25.70;55.10;;;;;;5061541;28;20044;-49
2021/09/27 08:24:57;;;;;;;0.20;0.10;;;25.70;55.20;;;;;;5051374;28;20041;-48
2021/09/27 08:27:24;;;;;;;0.22;0.10;;;25.70;55.30;;;;;;5050174;28;20041;-53
2021/09/27 08:29:51;;;;;;;1.15;0.10;;;25.70;55.20;;;;;;5048617;28;20037;-51
2021/09/27 08:32:18;;;;;;;0.47;0.10;;;25.70;55.10;;;;;;5055913;28;20041;-51
2021/09/27 08:34:49;;;;;;;0.10;0.10;;;25.70;55.10;;;;;;5063246;28;20060;-50
2021/09/27 08:37:18;;;;;;;0.20;0.10;;;25.70;55.10;;;;;;5066844;28;20043;-52
2021/09/27 08:39:47;;;;;;;1.35;0.10;;;25.70;55.10;;;;;;5048961;28;20527;-50
2021/09/27 08:42:19;;;;;;;0.90;0.10;;;25.70;55.10;;;;;;5064346;28;20126;-52
2021/09/27 08:44:56;;;;;;;1.92;0.20;;;25.70;55.10;;;;;;5056125;28;20033;-50
2021/09/27 08:47:30;;;;;;;0.40;0.10;;;25.70;55.10;;;;;;5054362;28;20410;-51
2021/09/27 08:50:01;;;;;;;0.40;0.10;;;25.70;55.20;;;;;;5053582;28;20044;-48
2021/09/27 08:52:32;;;;;;;0.40;0.30;;;25.70;55.20;;;;;;5059548;28;20037;-51
2021/09/27 08:55:01;;;;;;;1.40;0.20;;;25.70;55.20;;;;;;5065198;28;20794;-53
2021/09/27 08:57:37;;;;;;;0.70;0.22;;;25.70;55.20;;;;;;5064594;28;20098;-49
2021/09/27 09:00:12;;;;;;;0.10;0.10;;;25.70;55.20;;;;;;5054265;28;20589;-47
2021/09/27 09:02:50;;;;;;;0.52;0.10;;;25.70;55.20;;;;;;5054353;28;20044;-48
2021/09/27 09:05:22;;;;;;;1.75;0.30;;;25.70;55.20;;;;;;5050895;28;20033;-48
2021/09/27 09:07:55;;;;;;;0.85;0.17;;;25.70;55.20;;;;;;5052981;28;20056;-49
2021/09/27 09:10:38;;;;;;;1.40;0.20;;;25.70;55.20;;;;;;5051691;28;20140;-51
2021/09/27 09:13:08;;;;;;;0.20;0.10;;;25.70;55.10;;;;;;5048605;28;20079;-48
2021/09/27 09:15:36;;;;;;;0.10;0.10;;;25.70;55.20;;;;;;5052775;28;20116;-49
2021/09/27 09:18:09;;;;;;;0.75;0.20;;;25.70;55.10;;;;;;5060868;28;20532;-49
2021/09/27 09:20:48;;;;;;;1.65;0.95;;;25.70;55.10;;;;;;5055095;28;20043;-48
2021/09/27 09:23:25;;;;;;;3.05;0.20;;;25.70;55.20;;;;;;5063822;28;20045;-48
2021/09/27 09:25:52;;;;;;;0.68;0.30;;;25.70;55.20;;;;;;5053697;28;20049;-50
2021/09/27 09:28:19;;;;;;;0.22;0.17;;;25.70;55.20;;;;;;5062761;28;20056;-48
2021/09/27 09:30:53;;;;;;;1.17;0.10;;;25.70;55.20;;;;;;5053851;28;20041;-49
2021/09/27 09:33:38;;;;;;;0.45;0.10;;;25.70;55.20;;;;;;5051003;28;20064;-49
2021/09/27 09:36:06;;;;;;;0.40;0.10;;;25.70;55.10;;;;;;5056661;28;20056;-48
2021/09/27 09:38:37;;;;;;;0.10;0.10;;;25.70;55.20;;;;;;5057011;28;20037;-48
2021/09/27 09:41:06;;;;;;;0.60;0.28;;;25.70;55.20;;;;;;5054444;28;20090;-48
2021/09/27 09:43:35;;;;;;;2.95;0.20;;;25.70;55.20;;;;;;5063562;28;20044;-49
2021/09/27 09:46:07;;;;;;;0.30;0.10;;;25.70;55.10;;;;;;5049676;28;20132;-50
2021/09/27 09:48:36;;;;;;;1.13;0.20;;;25.80;55.20;;;;;;5053201;28;20127;-50
2021/09/27 09:51:20;;;;;;;1.20;0.20;;;25.70;55.10;;;;;;5052015;28;20068;-50
2021/09/27 09:54:01;;;;;;;1.65;0.20;;;25.80;55.20;;;;;;5050082;28;20044;-48
2021/09/27 09:56:34;;;;;;;1.10;0.10;;;25.80;55.20;;;;;;5061587;28;20041;-47
2021/09/27 09:59:02;;;;;;;1.00;0.10;;;25.80;55.20;;;;;;5059096;28;20037;-50
2021/09/27 10:01:34;;;;;;;1.13;0.10;;;25.80;55.20;;;;;;5051103;28;20045;-48
2021/09/27 10:04:04;;;;;;;0.82;0.30;;;25.80;55.20;;;;;;5049160;28;20060;-49
2021/09/27 10:06:37;;;;;;;0.65;0.10;;;25.80;55.20;;;;;;5052658;28;20044;-50
2021/09/27 10:09:09;;;;;;;0.28;0.17;;;25.80;55.20;;;;;;5051378;28;20056;-51
2021/09/27 10:11:41;;;;;;;0.85;0.20;;;25.80;55.10;;;;;;5051113;28;20041;-53
2021/09/27 10:14:21;;;;;;;0.10;0.10;;;25.80;55.20;;;;;;5052461;28;20574;-53
2021/09/27 10:16:51;;;;;;;0.47;0.10;;;25.90;55.10;;;;;;5060174;28;20047;-50
2021/09/27 10:19:27;;;;;;;0.50;0.10;;;25.80;55.10;;;;;;5065120;28;20044;-49
2021/09/27 10:22:00;;;;;;;0.10;0.10;;;25.90;55.10;;;;;;5057125;28;20127;-50
2021/09/27 10:24:38;;;;;;;1.55;0.10;;;25.80;55.00;;;;;;5061623;28;20041;-52
2021/09/27 10:27:18;;;;;;;1.85;0.25;;;25.90;55.10;;;;;;5059271;28;20044;-50
2021/09/27 10:29:45;;;;;;;1.65;0.30;;;25.80;55.00;;;;;;5052717;28;20045;-48
2021/09/27 10:32:24;;;;;;;1.55;1.38;;;25.80;55.00;;;;;;5050387;28;20532;-52
2021/09/27 10:34:53;;;;;;;0.30;0.10;;;25.90;55.00;;;;;;5050088;28;20049;-52
2021/09/27 10:37:24;;;;;;;0.10;0.10;;;25.80;55.00;;;;;;5054471;28;20040;-48
2021/09/27 10:39:55;;;;;;;0.28;0.10;;;25.90;55.00;;;;;;5047247;28;20049;-50
2021/09/27 10:42:27;;;;;;;0.10;0.10;;;25.90;55.00;;;;;;5064307;28;20046;-52
2021/09/27 10:44:54;;;;;;;0.45;0.10;;;25.90;55.00;;;;;;5052448;28;20049;-49
2021/09/27 10:47:25;;;;;;;0.75;0.10;;;25.90;55.00;;;;;;5052632;28;20040;-50
2021/09/27 10:49:57;;;;;;;0.50;0.25;;;25.90;55.00;;;;;;5051518;28;20055;-51
2021/09/27 10:52:36;;;;;;;0.77;0.32;;;25.90;55.00;;;;;;5059335;28;20043;-49
2021/09/27 10:55:15;;;;;;;1.65;0.20;;;25.90;55.00;;;;;;5046912;28;20048;-48
2021/09/27 10:57:50;;;;;;;0.28;0.10;;;25.90;55.00;;;;;;5061885;28;20037;-50
2021/09/27 11:00:32;;;;;;;0.77;0.10;;;25.90;55.00;;;;;;5051614;28;20052;-53
2021/09/27 11:03:07;;;;;;;0.80;0.77;;;25.90;55.10;;;;;;5051424;28;20056;-48
2021/09/27 11:05:47;;;;;;;4.10;0.20;;;25.90;55.10;;;;;;5051529;28;20041;-50
2021/09/27 11:08:17;;;;;;;0.45;0.10;;;25.90;55.10;;;;;;5051313;28;20041;-49
2021/09/27 11:10:50;;;;;;;0.85;0.45;;;25.90;55.10;;;;;;5059395;28;20055;-49
2021/09/27 11:13:36;;;;;;;0.73;0.10;;;25.90;55.10;;;;;;5046247;28;20531;-51
2021/09/27 11:16:11;;;;;;;2.22;0.10;;;25.90;55.10;;;;;;5047592;28;20136;-48
2021/09/27 11:18:48;;;;;;;0.47;0.47;;;25.90;55.10;;;;;;5051872;28;20044;-47
2021/09/27 11:21:21;;;;;;;0.75;0.30;;;25.90;55.10;;;;;;5047422;28;20414;-49
2021/09/27 11:24:01;;;;;;;0.28;0.10;;;25.90;55.10;;;;;;5045799;28;20462;-48
2021/09/27 11:26:36;;;;;;;0.15;0.15;;;25.90;55.10;;;;;;5053534;28;20451;-48
2021/09/27 11:29:29;;;;;;;0.85;0.10;;;25.90;55.20;;;;;;5063137;28;20049;-50
2021/09/27 11:32:28;;;;;;;0.30;0.30;;;25.90;55.10;;;;;;5062975;28;20052;-48
2021/09/27 11:34:59;;;;;;;0.15;0.10;;;25.90;55.10;;;;;;5063125;28;20532;-49
2021/09/27 11:37:29;;;;;;;1.23;0.52;;;25.80;55.20;;;;;;5065353;28;20045;-49
2021/09/27 11:40:26;;;;;;;1.33;0.10;;;25.80;55.20;;;;;;5066577;28;20054;-54
2021/09/27 11:43:05;;;;;;;1.15;0.10;;;25.90;55.20;;;;;;5067140;28;20436;-48
2021/09/27 11:45:50;;;;;;;0.10;0.10;;;25.80;55.10;;;;;;5051780;28;20047;-49
2021/09/27 11:48:46;;;;;;;0.32;0.32;;;25.80;55.10;;;;;;5065655;28;20044;-48
2021/09/27 11:51:29;;;;;;;1.58;0.10;;;25.80;55.10;;;;;;5053631;28;20132;-48
2021/09/27 11:54:13;;;;;;;1.02;0.10;;;25.80;55.20;;;;;;5061532;28;20048;-51
2021/09/27 11:56:47;;;;;;;1.75;0.10;;;25.80;55.20;;;;;;5057771;28;20044;-51
2021/09/27 11:59:22;;;;;;;0.10;0.10;;;25.80;55.20;;;;;;5054750;28;20520;-47
2021/09/27 12:01:57;;;;;;;0.63;0.63;;;25.80;55.20;;;;;;5065997;28;20047;-48
2021/09/27 12:04:39;;;;;;;0.20;0.20;;;25.70;55.10;;;;;;5051554;28;20033;-48
2021/09/27 12:07:11;;;;;;;1.20;0.15;;;25.70;55.10;;;;;;5066566;28;20049;-48
2021/09/27 12:09:42;;;;;;;1.27;0.17;;;25.70;55.10;;;;;;5065856;28;20047;-48
2021/09/27 12:12:21;;;;;;;0.45;0.20;;;25.70;55.10;;;;;;5063467;28;20025;-46
2021/09/27 12:14:50;;;;;;;0.10;0.10;;;25.70;55.10;;;;;;5062614;28;20044;-52
2021/09/27 12:17:20;;;;;;;1.55;0.10;;;25.70;55.10;;;;;;5061956;28;20699;-51
2021/09/27 12:19:50;;;;;;;0.45;0.10;;;25.70;55.20;;;;;;5064147;28;20041;-50
2021/09/27 12:22:21;;;;;;;0.20;0.10;;;25.70;55.20;;;;;;5049670;28;20063;-50
2021/09/27 12:24:51;;;;;;;0.10;0.10;;;25.70;55.10;;;;;;5052787;28;20152;-47
2021/09/27 12:27:22;;;;;;;1.30;0.57;;;25.70;55.10;;;;;;5064790;28;20041;-49
2021/09/27 12:29:57;;;;;;;0.57;0.10;;;25.70;55.10;;;;;;5062748;28;20512;-49
2021/09/27 12:32:28;;;;;;;1.17;0.43;;;25.70;55.10;;;;;;5061252;28;20040;-51
2021/09/27 12:34:56;;;;;;;1.75;0.10;;;25.70;55.10;;;;;;5051279;28;20049;-48
2021/09/27 12:37:24;;;;;;;1.55;0.10;;;25.60;55.00;;;;;;5066692;28;20085;-51
2021/09/27 12:39:52;;;;;;;1.23;0.22;;;25.70;55.10;;;;;;5056256;28;20052;-47
2021/09/27 12:42:24;;;;;;;1.58;0.30;;;25.60;55.00;;;;;;5064798;28;20044;-49
2021/09/27 12:44:55;;;;;;;0.45;0.10;;;25.60;55.00;;;;;;5054760;28;20086;-51
2021/09/27 12:47:23;;;;;;;0.20;0.20;;;25.60;55.00;;;;;;5061017;28;20039;-48
2021/09/27 12:49:55;;;;;;;2.55;0.10;;;25.70;55.10;;;;;;5061875;28;20493;-49
2021/09/27 12:52:39;;;;;;;2.40;0.17;;;25.70;55.10;;;;;;5064541;28;20037;-47
2021/09/27 12:55:10;;;;;;;3.00;0.10;;;25.70;55.00;;;;;;5064630;28;20052;-50
2021/09/27 12:57:40;;;;;;;0.20;0.10;;;25.70;55.00;;;;;;5063018;28;20518;-48
2021/09/27 13:00:15;;;;;;;0.50;0.40;;;25.70;55.00;;;;;;5050669;28;20037;-49
2021/09/27 13:02:44;;;;;;;0.27;0.10;;;25.70;55.00;;;;;;5055471;28;20041;-49
2021/09/27 13:05:15;;;;;;;0.40;0.20;;;25.70;55.00;;;;;;5053912;28;20791;-53
2021/09/27 13:07:44;;;;;;;0.68;0.10;;;25.70;55.10;;;;;;5061592;28;20045;-51
2021/09/27 13:10:23;;;;;;;0.70;0.10;;;25.70;54.90;;;;;;5049859;28;20402;-47
2021/09/27 13:13:14;;;;;;;1.75;0.28;;;25.80;54.80;;;;;;5065321;28;20551;-49
2021/09/27 13:15:46;;;;;;;0.17;0.10;;;25.80;54.80;;;;;;5065353;28;20040;-50
2021/09/27 13:18:15;;;;;;;0.10;0.10;;;25.80;54.80;;;;;;5055566;28;20045;-50
2021/09/27 13:20:50;;;;;;;1.92;0.10;;;25.90;54.80;;;;;;5060313;28;20125;-50
2021/09/27 13:23:23;;;;;;;1.95;0.30;;;25.90;54.70;;;;;;5060976;28;20129;-52
2021/09/27 13:25:54;;;;;;;0.47;0.10;;;25.90;54.70;;;;;;5060862;28;20045;-49
2021/09/27 13:28:24;;;;;;;1.85;0.10;;;26.00;54.70;;;;;;5064933;28;20409;-49